Time;durP1;ratioP1;P1;durP2;ratioP2;P2;SDS_P1;SDS_P2;PMS_P1;PMS_P2;Temp;Humidity;BMP_temperature;BMP_pressure;BME280_temperature;BME280_humidity;BME280_pressure;Samples;Min_cycle;Max_cycle;Signal;HPM_P1;HPM_P2
2023/06/05 00:01:42;;;;;;;9.95;5.87;;;;;;;;;;4453735;32;20014;-69
2023/06/05 00:04:07;;;;;;;10.13;6.65;;;;;;;;;;4453360;32;20116;-69
2023/06/05 00:06:33;;;;;;;9.38;6.07;;;;;;;;;;4452979;32;20424;-69
2023/06/05 00:08:58;;;;;;;11.65;6.80;;;;;;;;;;4451848;32;20049;-70
2023/06/05 00:11:23;;;;;;;;;;;;;;;;;;4452039;32;20059;-70
2023/06/05 00:13:49;;;;;;;11.35;6.35;;;;;;;;;;4445940;32;19975;-70
2023/06/05 00:16:14;;;;;;;10.65;6.68;;;;;;;;;;4422438;32;20021;-69
2023/06/05 00:18:39;;;;;;;11.88;6.35;;;;;;;;;;4437615;32;20070;-69
2023/06/05 00:21:05;;;;;;;;;;;;;;;;;;4423474;32;20022;-69
2023/06/05 00:23:30;;;;;;;11.63;7.03;;;;;;;;;;4436575;32;19963;-68
2023/06/05 00:25:55;;;;;;;9.73;6.72;;;;;;;;;;4436121;32;20026;-70
2023/06/05 00:28:20;;;;;;;;;;;;;;;;;;4423544;32;20450;-70
2023/06/05 00:30:45;;;;;;;9.68;6.55;;;;;;;;;;4438214;32;19937;-70
2023/06/05 00:33:11;;;;;;;9.20;6.60;;;;;;;;;;4436485;32;20096;-70
2023/06/05 00:35:36;;;;;;;10.13;6.80;;;;;;;;;;4437027;32;20026;-70
2023/06/05 00:38:01;;;;;;;14.32;6.75;;;;;;;;;;4438084;32;20308;-70
2023/06/05 00:40:26;;;;;;;11.70;7.28;;;;;;;;;;4437029;32;20025;-69
2023/06/05 00:42:52;;;;;;;10.45;6.25;;;;;;;;;;4435808;32;20082;-69
2023/06/05 00:45:17;;;;;;;;;;;;;;;;;;4438025;32;20030;-71
2023/06/05 00:47:42;;;;;;;10.95;6.35;;;;;;;;;;4437114;32;19947;-70
2023/06/05 00:50:08;;;;;;;12.63;7.30;;;;;;;;;;4439062;32;20596;-69
2023/06/05 00:52:33;;;;;;;;;;;;;;;;;;4450731;32;20038;-69
2023/06/05 00:54:58;;;;;;;10.35;6.97;;;;;;;;;;4436433;32;19929;-69
2023/06/05 00:57:24;;;;;;;;;;;;;;;;;;4422004;32;20021;-70
2023/06/05 00:59:50;;;;;;;15.05;6.93;;;;;;;;;;4437336;32;19948;-70
2023/06/05 01:02:16;;;;;;;11.68;6.80;;;;;;;;;;4422618;32;20048;-69
2023/06/05 01:04:43;;;;;;;10.07;6.25;;;;;;;;;;4435487;32;20123;-70
2023/06/05 01:07:08;;;;;;;12.50;7.03;;;;;;;;;;4436835;32;20052;-69
2023/06/05 01:09:34;;;;;;;12.57;7.70;;;;;;;;;;4421180;32;20018;-69
2023/06/05 01:12:10;;;;;;;9.40;6.55;;;;;;;;;;4437706;32;20045;-70
2023/06/05 01:14:36;;;;;;;11.18;7.87;;;;;;;;;;4435782;32;20067;-69
2023/06/05 01:17:03;;;;;;;13.00;7.07;;;;;;;;;;4435461;32;20115;-69
2023/06/05 01:19:31;;;;;;;12.60;7.75;;;;;;;;;;4436499;32;20041;-69
2023/06/05 01:21:56;;;;;;;13.85;8.00;;;;;;;;;;4435774;32;20022;-69
2023/06/05 01:24:22;;;;;;;10.90;7.18;;;;;;;;;;4435915;32;20052;-70
2023/06/05 01:26:52;;;;;;;;;;;;;;;;;;4437449;32;20030;-70
2023/06/05 01:29:20;;;;;;;8.82;7.87;;;;;;;;;;4421927;32;19929;-69
2023/06/05 01:31:46;;;;;;;10.85;7.30;;;;;;;;;;4423008;32;20022;-69
2023/06/05 01:34:14;;;;;;;12.68;6.80;;;;;;;;;;4436008;32;20070;-70
2023/06/05 01:36:40;;;;;;;12.75;7.43;;;;;;;;;;4435313;32;20048;-69
2023/06/05 01:39:06;;;;;;;16.10;8.00;;;;;;;;;;4435769;32;20022;-70
2023/06/05 01:41:31;;;;;;;9.60;7.43;;;;;;;;;;4436302;32;20343;-69
2023/06/05 01:43:56;;;;;;;;;;;;;;;;;;4437310;32;20049;-70
2023/06/05 01:46:22;;;;;;;9.43;7.90;;;;;;;;;;4435445;32;20278;-70
2023/06/05 01:48:47;;;;;;;;;;;;;;;;;;4435710;32;20026;-70
2023/06/05 01:51:12;;;;;;;9.98;8.15;;;;;;;;;;4435892;32;20231;-70
2023/06/05 01:53:37;;;;;;;13.68;7.70;;;;;;;;;;4444629;32;20036;-69
2023/06/05 01:56:03;;;;;;;;;;;;;;;;;;4451465;32;20378;-70
2023/06/05 01:58:28;;;;;;;10.63;7.85;;;;;;;;;;4437474;32;19937;-70
2023/06/05 02:00:54;;;;;;;13.82;7.78;;;;;;;;;;4452925;32;20096;-70
2023/06/05 02:03:19;;;;;;;;;;;;;;;;;;4453015;32;20096;-70
2023/06/05 02:05:44;;;;;;;15.90;8.50;;;;;;;;;;4450722;32;19951;-70
2023/06/05 02:08:10;;;;;;;10.30;7.78;;;;;;;;;;4450822;32;20038;-70
2023/06/05 02:10:42;;;;;;;10.00;7.37;;;;;;;;;;4451196;32;20130;-71
2023/06/05 02:13:07;;;;;;;11.65;7.55;;;;;;;;;;4452588;32;20059;-70
2023/06/05 02:15:34;;;;;;;15.85;8.48;;;;;;;;;;4452022;32;20438;-70
2023/06/05 02:18:00;;;;;;;12.52;8.90;;;;;;;;;;4436746;32;20113;-70
2023/06/05 02:20:25;;;;;;;11.12;7.60;;;;;;;;;;4437921;32;20018;-70
2023/06/05 02:22:51;;;;;;;14.05;7.62;;;;;;;;;;4439853;32;20022;-70
2023/06/05 02:25:17;;;;;;;11.25;7.47;;;;;;;;;;4439150;32;20025;-70
2023/06/05 02:27:42;;;;;;;13.10;7.82;;;;;;;;;;4439895;32;20130;-70
2023/06/05 02:30:07;;;;;;;;;;;;;;;;;;4454305;32;20017;-70
2023/06/05 02:32:32;;;;;;;14.32;7.47;;;;;;;;;;4453447;32;19937;-70
2023/06/05 02:34:58;;;;;;;11.95;7.53;;;;;;;;;;4455091;32;20364;-70
2023/06/05 02:37:23;;;;;;;;;;;;;;;;;;4453429;32;20056;-70
2023/06/05 02:39:48;;;;;;;13.65;7.90;;;;;;;;;;4453997;32;20014;-70
2023/06/05 02:42:13;;;;;;;12.02;8.43;;;;;;;;;;4439208;32;20025;-69
2023/06/05 02:44:38;;;;;;;;;;;;;;;;;;4453976;32;20072;-70
2023/06/05 02:47:04;;;;;;;12.60;8.63;;;;;;;;;;4453213;32;20337;-69
2023/06/05 02:49:29;;;;;;;12.05;8.35;;;;;;;;;;4455198;32;20040;-70
2023/06/05 02:51:55;;;;;;;;;;;;;;;;;;4455004;32;20029;-69
2023/06/05 02:54:20;;;;;;;14.40;7.45;;;;;;;;;;4438811;32;19955;-69
2023/06/05 02:56:45;;;;;;;13.13;7.65;;;;;;;;;;4453152;32;20022;-70
2023/06/05 02:59:11;;;;;;;12.77;8.15;;;;;;;;;;4453499;32;20062;-69
2023/06/05 03:01:36;;;;;;;;;;;;;;;;;;4440806;32;20021;-69
2023/06/05 03:04:02;;;;;;;16.20;8.25;;;;;;;;;;4454495;32;19941;-69
2023/06/05 03:06:27;;;;;;;;;;;;;;;;;;4453055;32;20022;-70
2023/06/05 03:08:55;;;;;;;11.27;8.75;;;;;;;;;;4454165;32;20002;-69
2023/06/05 03:11:21;;;;;;;12.15;8.02;;;;;;;;;;4453662;32;20025;-69
2023/06/05 03:13:46;;;;;;;11.88;7.70;;;;;;;;;;4452535;32;20378;-69
2023/06/05 03:16:12;;;;;;;8.52;6.78;;;;;;;;;;4453966;32;20044;-70
2023/06/05 03:18:37;;;;;;;12.48;7.90;;;;;;;;;;4452684;32;20429;-70
2023/06/05 03:21:03;;;;;;;10.43;8.13;;;;;;;;;;4453425;32;20049;-70
2023/06/05 03:23:28;;;;;;;;;;;;;;;;;;4439893;32;20025;-70
2023/06/05 03:25:57;;;;;;;13.18;8.00;;;;;;;;;;4454270;32;19979;-70
2023/06/05 03:28:23;;;;;;;13.62;8.35;;;;;;;;;;4438354;32;20162;-70
2023/06/05 03:30:48;;;;;;;16.60;8.82;;;;;;;;;;4454264;32;20044;-70
2023/06/05 03:33:13;;;;;;;;;;;;;;;;;;4451918;32;20105;-70
2023/06/05 03:35:40;;;;;;;15.32;8.07;;;;;;;;;;4438700;32;20304;-70
2023/06/05 03:38:05;;;;;;;9.18;7.78;;;;;;;;;;4438128;32;20125;-71
2023/06/05 03:40:30;;;;;;;15.27;9.35;;;;;;;;;;4454050;32;20041;-70
2023/06/05 03:42:55;;;;;;;14.57;8.88;;;;;;;;;;4453240;32;20089;-70
2023/06/05 03:45:22;;;;;;;12.52;8.35;;;;;;;;;;4452872;32;20022;-70
2023/06/05 03:47:48;;;;;;;18.80;9.52;;;;;;;;;;4437913;32;20048;-72
2023/06/05 03:50:14;;;;;;;16.40;9.88;;;;;;;;;;4439115;32;20420;-70
2023/06/05 03:52:39;;;;;;;12.95;8.32;;;;;;;;;;4452054;32;20061;-70
2023/06/05 03:55:07;;;;;;;11.77;9.30;;;;;;;;;;4453944;32;20014;-70
2023/06/05 03:57:32;;;;;;;13.27;9.32;;;;;;;;;;4453477;32;20025;-70
2023/06/05 03:59:57;;;;;;;18.55;9.65;;;;;;;;;;4452279;32;20017;-70
2023/06/05 04:02:23;;;;;;;15.02;9.55;;;;;;;;;;4453803;32;20053;-71
2023/06/05 04:04:50;;;;;;;;;;;;;;;;;;4452079;32;20448;-70
2023/06/05 04:07:15;;;;;;;14.40;8.75;;;;;;;;;;4437676;32;20307;-70
2023/06/05 04:09:41;;;;;;;12.57;9.13;;;;;;;;;;4453712;32;20048;-69
2023/06/05 04:12:06;;;;;;;;;;;;;;;;;;4452379;32;20013;-70
2023/06/05 04:14:31;;;;;;;10.77;8.23;;;;;;;;;;4451628;32;20219;-70
2023/06/05 04:16:56;;;;;;;;;;;;;;;;;;4454109;32;20124;-70
2023/06/05 04:19:21;;;;;;;14.02;10.93;;;;;;;;;;4452302;32;20000;-70
2023/06/05 04:21:47;;;;;;;16.20;9.15;;;;;;;;;;4451774;32;20013;-70
2023/06/05 04:24:12;;;;;;;;;;;;;;;;;;4451975;32;20088;-71
2023/06/05 04:26:38;;;;;;;15.15;8.57;;;;;;;;;;4437280;32;19989;-71
2023/06/05 04:29:04;;;;;;;15.50;8.82;;;;;;;;;;4452611;32;20147;-71
2023/06/05 04:31:30;;;;;;;13.27;7.57;;;;;;;;;;4452569;32;20022;-70
2023/06/05 04:33:56;;;;;;;15.80;9.38;;;;;;;;;;4453449;32;20109;-70
2023/06/05 04:36:21;;;;;;;15.18;8.48;;;;;;;;;;4452961;32;20063;-70
2023/06/05 04:38:46;;;;;;;14.00;8.82;;;;;;;;;;4451900;32;20395;-69
2023/06/05 04:41:12;;;;;;;10.93;7.32;;;;;;;;;;4452017;32;20017;-69
2023/06/05 04:43:37;;;;;;;13.85;8.52;;;;;;;;;;4443950;32;20056;-70
2023/06/05 04:46:02;;;;;;;;;;;;;;;;;;4444152;32;20017;-69
2023/06/05 04:48:28;;;;;;;12.35;7.68;;;;;;;;;;4451389;32;19933;-70
2023/06/05 04:50:53;;;;;;;12.23;8.65;;;;;;;;;;4450828;32;20049;-70
2023/06/05 04:53:18;;;;;;;12.70;8.02;;;;;;;;;;4451621;32;20049;-69
2023/06/05 04:55:45;;;;;;;18.65;8.02;;;;;;;;;;4451273;32;20018;-69
2023/06/05 04:58:10;;;;;;;15.48;8.30;;;;;;;;;;4452467;32;20092;-70
2023/06/05 05:00:35;;;;;;;10.88;7.20;;;;;;;;;;4450824;32;20021;-70
2023/06/05 05:03:01;;;;;;;13.15;7.95;;;;;;;;;;4451137;32;20092;-70
2023/06/05 05:05:26;;;;;;;;;;;;;;;;;;4451545;32;20022;-70
2023/06/05 05:07:51;;;;;;;11.77;7.57;;;;;;;;;;4451486;32;19936;-70
2023/06/05 05:10:16;;;;;;;13.05;7.40;;;;;;;;;;4451305;32;20077;-70
2023/06/05 05:12:41;;;;;;;8.93;6.68;;;;;;;;;;4436135;32;20069;-70
2023/06/05 05:15:07;;;;;;;12.93;6.50;;;;;;;;;;4445517;32;20065;-69
2023/06/05 05:17:32;;;;;;;7.82;6.07;;;;;;;;;;4436013;32;20116;-69
2023/06/05 05:19:58;;;;;;;8.40;6.10;;;;;;;;;;4435734;32;20017;-69
2023/06/05 05:22:23;;;;;;;;;;;;;;;;;;4436871;32;20073;-70
2023/06/05 05:24:48;;;;;;;9.15;7.03;;;;;;;;;;4435359;32;19951;-69
2023/06/05 05:27:13;;;;;;;10.47;6.77;;;;;;;;;;4435221;32;20094;-69
2023/06/05 05:29:38;;;;;;;;;;;;;;;;;;4436872;32;20136;-69
2023/06/05 05:32:05;;;;;;;13.75;6.35;;;;;;;;;;4434116;32;19983;-69
2023/06/05 05:34:30;;;;;;;11.43;6.85;;;;;;;;;;4435084;32;20030;-69
2023/06/05 05:36:56;;;;;;;10.95;8.27;;;;;;;;;;4434092;32;20454;-69
2023/06/05 05:39:21;;;;;;;14.35;6.62;;;;;;;;;;4435156;32;20022;-70
2023/06/05 05:41:46;;;;;;;;;;;;;;;;;;4433990;32;20026;-71
2023/06/05 05:44:11;;;;;;;10.65;7.05;;;;;;;;;;4433588;32;19989;-70
2023/06/05 05:46:37;;;;;;;11.40;7.97;;;;;;;;;;4433742;32;20068;-70
2023/06/05 05:49:02;;;;;;;;;;;;;;;;;;4435555;32;20121;-69
2023/06/05 05:51:27;;;;;;;16.98;7.87;;;;;;;;;;4434701;32;19977;-70
2023/06/05 05:53:52;;;;;;;10.25;7.62;;;;;;;;;;4433267;32;20165;-69
2023/06/05 05:56:18;;;;;;;12.55;8.05;;;;;;;;;;4436437;32;20456;-70
2023/06/05 05:58:44;;;;;;;10.83;8.57;;;;;;;;;;4436602;32;20143;-70
2023/06/05 06:01:09;;;;;;;10.48;7.85;;;;;;;;;;4438119;32;20117;-69
2023/06/05 06:03:37;;;;;;;12.30;8.45;;;;;;;;;;4437229;32;20064;-71
2023/06/05 06:06:03;;;;;;;12.63;8.90;;;;;;;;;;4436611;32;20022;-69
2023/06/05 06:08:28;;;;;;;13.45;8.23;;;;;;;;;;4437378;32;20014;-71
2023/06/05 06:10:55;;;;;;;14.63;8.13;;;;;;;;;;4438251;32;20030;-70
2023/06/05 06:13:20;;;;;;;14.87;8.73;;;;;;;;;;4437713;32;20026;-70
2023/06/05 06:15:46;;;;;;;;;;;;;;;;;;4442163;32;20025;-69
2023/06/05 06:18:11;;;;;;;15.63;8.75;;;;;;;;;;4437758;32;20052;-70
2023/06/05 06:20:36;;;;;;;11.70;7.90;;;;;;;;;;4438183;32;20478;-70
2023/06/05 06:23:02;;;;;;;10.40;7.55;;;;;;;;;;4437946;32;20429;-72
2023/06/05 06:25:28;;;;;;;11.15;7.82;;;;;;;;;;4436653;32;20026;-69
2023/06/05 06:27:57;;;;;;;15.75;8.43;;;;;;;;;;4447881;32;20061;-70
2023/06/05 06:30:22;;;;;;;11.55;7.60;;;;;;;;;;4453067;32;20371;-70
2023/06/05 06:32:47;;;;;;;11.90;7.65;;;;;;;;;;4453675;32;20043;-70
2023/06/05 06:35:16;;;;;;;;;;;;;;;;;;4455207;32;20419;-70
2023/06/05 06:37:41;;;;;;;10.43;6.90;;;;;;;;;;4438563;32;19941;-70
2023/06/05 06:40:10;;;;;;;12.52;6.85;;;;;;;;;;4453648;32;20086;-70
2023/06/05 06:42:36;;;;;;;10.40;7.43;;;;;;;;;;4453027;32;20025;-70
2023/06/05 06:45:02;;;;;;;10.13;7.50;;;;;;;;;;4454910;32;20044;-70
2023/06/05 06:47:27;;;;;;;8.88;6.55;;;;;;;;;;4454466;32;20114;-70
2023/06/05 06:49:53;;;;;;;10.00;7.50;;;;;;;;;;4452661;32;20041;-72
2023/06/05 06:52:19;;;;;;;10.00;6.78;;;;;;;;;;4445748;32;20029;-71
2023/06/05 06:54:45;;;;;;;9.18;6.97;;;;;;;;;;4433268;32;20048;-73
2023/06/05 06:57:10;;;;;;;11.52;7.00;;;;;;;;;;4449989;32;20033;-72
2023/06/05 06:59:35;;;;;;;12.17;7.30;;;;;;;;;;4452726;32;20069;-72
2023/06/05 07:02:14;;;;;;;17.12;7.50;;;;;;;;;;4454298;32;20116;-72
2023/06/05 07:04:41;;;;;;;14.48;7.10;;;;;;;;;;4452755;32;20037;-72
2023/06/05 07:07:07;;;;;;;11.65;6.90;;;;;;;;;;4451249;32;20029;-72
2023/06/05 07:09:32;;;;;;;9.88;6.80;;;;;;;;;;4454117;32;20105;-71
2023/06/05 07:11:58;;;;;;;9.15;6.10;;;;;;;;;;4452612;32;20043;-71
2023/06/05 07:14:23;;;;;;;9.32;6.90;;;;;;;;;;4439486;32;20049;-71
2023/06/05 07:16:51;;;;;;;8.00;6.28;;;;;;;;;;4438562;32;20089;-72
2023/06/05 07:19:16;;;;;;;14.02;6.80;;;;;;;;;;4452757;32;20085;-72
2023/06/05 07:21:42;;;;;;;8.45;6.90;;;;;;;;;;4453251;32;20018;-72
2023/06/05 07:24:07;;;;;;;8.45;6.28;;;;;;;;;;4438078;32;20094;-72
2023/06/05 07:26:33;;;;;;;9.73;5.90;;;;;;;;;;4453348;32;20017;-72
2023/06/05 07:28:58;;;;;;;8.10;5.00;;;;;;;;;;4452210;32;20048;-71
2023/06/05 07:31:23;;;;;;;11.65;6.28;;;;;;;;;;4438727;32;20112;-70
2023/06/05 07:33:49;;;;;;;12.90;6.62;;;;;;;;;;4451772;32;20059;-71
2023/06/05 07:36:14;;;;;;;6.70;5.93;;;;;;;;;;4437562;32;20044;-71
2023/06/05 07:38:40;;;;;;;9.60;5.32;;;;;;;;;;4451888;32;20423;-71
2023/06/05 07:41:05;;;;;;;9.45;5.72;;;;;;;;;;4451865;32;20025;-71
2023/06/05 07:43:31;;;;;;;14.80;5.30;;;;;;;;;;4453523;32;20428;-71
2023/06/05 07:45:56;;;;;;;7.22;4.78;;;;;;;;;;4438013;32;20039;-71
2023/06/05 07:48:21;;;;;;;8.25;5.20;;;;;;;;;;4453351;32;20100;-71
2023/06/05 07:50:46;;;;;;;9.70;4.55;;;;;;;;;;4453408;32;20021;-72
2023/06/05 07:53:12;;;;;;;10.90;5.37;;;;;;;;;;4451509;32;20422;-70
2023/06/05 07:55:37;;;;;;;8.68;4.95;;;;;;;;;;4452093;32;20029;-71
2023/06/05 07:58:02;;;;;;;7.50;4.80;;;;;;;;;;4452131;32;20013;-71
2023/06/05 08:00:28;;;;;;;4.97;4.05;;;;;;;;;;4452160;32;20139;-72
2023/06/05 08:02:53;;;;;;;8.07;4.10;;;;;;;;;;4438432;32;20045;-73
2023/06/05 08:05:19;;;;;;;5.12;4.20;;;;;;;;;;4437698;32;20085;-73
2023/06/05 08:07:44;;;;;;;5.62;4.07;;;;;;;;;;4437575;32;20073;-72
2023/06/05 08:10:09;;;;;;;6.18;4.80;;;;;;;;;;4438282;32;20043;-72
2023/06/05 08:12:34;;;;;;;6.22;4.00;;;;;;;;;;4451896;32;20048;-72
2023/06/05 08:14:59;;;;;;;7.75;4.35;;;;;;;;;;4453698;32;20051;-72
2023/06/05 08:17:25;;;;;;;8.38;4.05;;;;;;;;;;4437816;32;20462;-71
2023/06/05 08:19:50;;;;;;;11.88;4.65;;;;;;;;;;4451698;32;20410;-72
2023/06/05 08:22:15;;;;;;;4.80;3.55;;;;;;;;;;4452640;32;20026;-72
2023/06/05 08:24:41;;;;;;;6.78;3.62;;;;;;;;;;4451597;32;20051;-71
2023/06/05 08:27:07;;;;;;;7.87;5.18;;;;;;;;;;4438115;32;20058;-72
2023/06/05 08:29:36;;;;;;;9.80;5.22;;;;;;;;;;4437583;32;20044;-72
2023/06/05 08:32:01;;;;;;;7.07;4.55;;;;;;;;;;4438306;32;20359;-72
2023/06/05 08:34:26;;;;;;;9.50;4.57;;;;;;;;;;4451593;32;20026;-73
2023/06/05 08:36:52;;;;;;;8.02;4.10;;;;;;;;;;4451506;32;20419;-72
2023/06/05 08:39:17;;;;;;;11.03;4.30;;;;;;;;;;4451672;32;20017;-71
2023/06/05 08:41:42;;;;;;;5.87;3.65;;;;;;;;;;4451216;32;20135;-72
2023/06/05 08:44:10;;;;;;;6.95;3.42;;;;;;;;;;4450938;32;20022;-73
2023/06/05 08:46:36;;;;;;;6.65;3.95;;;;;;;;;;4451302;32;20166;-72
2023/06/05 08:49:06;;;;;;;5.25;3.42;;;;;;;;;;4451452;32;20101;-73
2023/06/05 08:51:32;;;;;;;6.30;4.00;;;;;;;;;;4438214;32;20029;-73
2023/06/05 08:54:02;;;;;;;6.35;3.53;;;;;;;;;;4451092;32;20081;-72
2023/06/05 08:56:28;;;;;;;5.40;3.62;;;;;;;;;;4436924;32;20383;-72
2023/06/05 08:58:55;;;;;;;5.37;3.53;;;;;;;;;;4437193;32;20108;-71
2023/06/05 09:01:20;;;;;;;9.18;3.40;;;;;;;;;;4437083;32;20124;-71
2023/06/05 09:03:45;;;;;;;5.72;3.35;;;;;;;;;;4451986;32;20021;-72
2023/06/05 09:06:11;;;;;;;8.07;3.65;;;;;;;;;;4452468;32;20044;-72
2023/06/05 09:08:36;;;;;;;5.93;3.53;;;;;;;;;;4451119;32;20013;-71
2023/06/05 09:11:21;;;;;;;3.28;2.75;;;;;;;;;;4437523;32;20308;-73
2023/06/05 09:13:46;;;;;;;4.15;3.70;;;;;;;;;;4451031;32;20021;-71
2023/06/05 09:16:11;;;;;;;5.70;3.30;;;;;;;;;;4436783;32;20066;-72
2023/06/05 09:18:51;;;;;;;3.97;3.28;;;;;;;;;;4450896;32;20013;-71
2023/06/05 09:21:17;;;;;;;7.53;4.10;;;;;;;;;;4438060;32;20051;-72
2023/06/05 09:23:42;;;;;;;4.90;3.67;;;;;;;;;;4437663;32;20044;-72
2023/06/05 09:26:09;;;;;;;6.07;3.80;;;;;;;;;;4451304;32;20413;-72
2023/06/05 09:28:34;;;;;;;5.10;3.67;;;;;;;;;;4436400;32;20053;-72
2023/06/05 09:31:00;;;;;;;5.15;3.25;;;;;;;;;;4450156;32;20026;-72
2023/06/05 09:33:27;;;;;;;5.53;3.10;;;;;;;;;;4450801;32;20429;-72
2023/06/05 09:36:03;;;;;;;10.43;4.32;;;;;;;;;;4452080;32;20051;-71
2023/06/05 09:38:28;;;;;;;7.50;4.07;;;;;;;;;;4436912;32;20070;-72
2023/06/05 09:41:00;;;;;;;5.95;4.03;;;;;;;;;;4451428;32;20427;-72
2023/06/05 09:43:26;;;;;;;7.15;4.47;;;;;;;;;;4451096;32;20029;-72
2023/06/05 09:45:51;;;;;;;5.72;4.20;;;;;;;;;;4450445;32;20092;-72
2023/06/05 09:48:16;;;;;;;5.80;4.37;;;;;;;;;;4451350;32;20017;-71
2023/06/05 09:50:42;;;;;;;9.65;5.43;;;;;;;;;;4450357;32;20392;-71
2023/06/05 09:53:08;;;;;;;8.70;5.07;;;;;;;;;;4450034;32;20491;-72
2023/06/05 09:55:34;;;;;;;7.68;5.20;;;;;;;;;;4451036;32;20152;-73
2023/06/05 09:58:09;;;;;;;6.60;5.20;;;;;;;;;;4450285;32;20017;-72
2023/06/05 10:00:36;;;;;;;6.95;5.62;;;;;;;;;;4450670;32;20193;-71
2023/06/05 10:03:04;;;;;;;6.50;4.80;;;;;;;;;;4436324;32;20017;-72
2023/06/05 10:05:30;;;;;;;7.37;5.12;;;;;;;;;;4451449;32;20024;-72
2023/06/05 10:07:56;;;;;;;6.90;5.90;;;;;;;;;;4435925;32;20049;-71
2023/06/05 10:10:21;;;;;;;6.93;5.65;;;;;;;;;;4437266;32;20394;-71
2023/06/05 10:12:47;;;;;;;10.07;5.95;;;;;;;;;;4450830;32;20083;-71
2023/06/05 10:15:12;;;;;;;9.05;6.37;;;;;;;;;;4437023;32;20052;-71
2023/06/05 10:17:38;;;;;;;7.70;5.28;;;;;;;;;;4450635;32;20391;-71
2023/06/05 10:20:06;;;;;;;7.87;5.12;;;;;;;;;;4436250;32;20045;-71
2023/06/05 10:22:32;;;;;;;9.50;5.55;;;;;;;;;;4450872;32;20083;-72
2023/06/05 10:25:00;;;;;;;9.48;5.15;;;;;;;;;;4451278;32;20022;-72
2023/06/05 10:27:40;;;;;;;8.25;5.45;;;;;;;;;;4433695;32;20048;-71
2023/06/05 10:30:09;;;;;;;9.57;4.82;;;;;;;;;;4435588;32;20108;-71
2023/06/05 10:32:49;;;;;;;6.93;5.03;;;;;;;;;;4433225;32;20106;-69
2023/06/05 10:35:17;;;;;;;8.85;4.97;;;;;;;;;;4446428;32;20033;-72
2023/06/05 10:38:01;;;;;;;9.73;5.32;;;;;;;;;;4435008;32;20086;-70
2023/06/05 10:40:26;;;;;;;9.23;4.87;;;;;;;;;;4435582;32;20022;-71
2023/06/05 10:42:52;;;;;;;9.52;4.70;;;;;;;;;;4440256;32;20013;-71
2023/06/05 10:45:30;;;;;;;7.35;4.82;;;;;;;;;;4437504;32;20127;-72
2023/06/05 10:47:55;;;;;;;6.90;4.70;;;;;;;;;;4438326;32;20119;-72
2023/06/05 10:50:22;;;;;;;7.22;4.00;;;;;;;;;;4439732;32;20030;-70
2023/06/05 10:52:48;;;;;;;7.28;5.35;;;;;;;;;;4451274;32;20434;-71
2023/06/05 10:55:15;;;;;;;9.15;5.60;;;;;;;;;;4453128;32;20058;-70
2023/06/05 10:57:55;;;;;;;7.65;5.47;;;;;;;;;;4447045;32;20092;-71
2023/06/05 11:00:21;;;;;;;8.07;4.90;;;;;;;;;;4441713;32;20436;-70
2023/06/05 11:02:46;;;;;;;7.50;4.80;;;;;;;;;;4439329;32;20021;-70
2023/06/05 11:05:12;;;;;;;7.70;5.20;;;;;;;;;;4438930;32;20026;-71
2023/06/05 11:07:38;;;;;;;7.62;5.00;;;;;;;;;;4435913;32;20017;-71
2023/06/05 11:10:06;;;;;;;5.87;4.72;;;;;;;;;;4437152;32;20071;-70
2023/06/05 11:12:40;;;;;;;7.40;4.87;;;;;;;;;;4437047;32;20086;-71
2023/06/05 11:15:06;;;;;;;8.90;4.80;;;;;;;;;;4437740;32;20048;-71
2023/06/05 11:17:35;;;;;;;7.32;5.15;;;;;;;;;;4437982;32;20022;-72
2023/06/05 11:20:19;;;;;;;7.03;5.22;;;;;;;;;;4436724;32;20030;-71
2023/06/05 11:22:50;;;;;;;9.85;5.00;;;;;;;;;;4437902;32;20081;-71
2023/06/05 11:25:19;;;;;;;7.25;5.43;;;;;;;;;;4435560;32;20048;-71
2023/06/05 11:27:45;;;;;;;8.25;5.60;;;;;;;;;;4436944;32;20021;-72
2023/06/05 11:30:13;;;;;;;6.32;4.95;;;;;;;;;;4440842;32;20064;-71
2023/06/05 11:32:39;;;;;;;9.23;4.55;;;;;;;;;;4437017;32;20350;-70
2023/06/05 11:35:04;;;;;;;6.18;4.53;;;;;;;;;;4440596;32;20099;-73
2023/06/05 11:37:32;;;;;;;6.72;4.60;;;;;;;;;;4430557;32;20458;-70
2023/06/05 11:39:57;;;;;;;8.25;5.07;;;;;;;;;;4432319;32;20030;-70
2023/06/05 11:42:24;;;;;;;7.47;4.85;;;;;;;;;;4445348;32;20128;-71
2023/06/05 11:44:50;;;;;;;9.77;4.97;;;;;;;;;;4423030;32;20048;-72
2023/06/05 11:47:26;;;;;;;5.85;4.43;;;;;;;;;;4423289;32;20039;-71
2023/06/05 11:49:51;;;;;;;6.05;5.00;;;;;;;;;;4436256;32;20400;-71
2023/06/05 11:52:18;;;;;;;9.45;4.90;;;;;;;;;;4436394;32;20044;-71
2023/06/05 11:54:52;;;;;;;7.60;4.97;;;;;;;;;;4422077;32;20097;-70
2023/06/05 11:57:26;;;;;;;7.50;5.10;;;;;;;;;;4437992;32;20100;-70
2023/06/05 11:59:51;;;;;;;5.70;4.93;;;;;;;;;;4451862;32;20051;-70
2023/06/05 12:02:21;;;;;;;9.70;8.88;;;;;;;;;;4451466;32;20022;-70
2023/06/05 12:04:47;;;;;;;6.60;4.07;;;;;;;;;;4451694;32;20384;-70
2023/06/05 12:07:12;;;;;;;12.13;5.18;;;;;;;;;;4451014;32;20026;-71
2023/06/05 12:09:37;;;;;;;4.87;4.25;;;;;;;;;;4452046;32;20342;-71
2023/06/05 12:12:06;;;;;;;7.50;4.17;;;;;;;;;;4451303;32;20044;-71
2023/06/05 12:14:32;;;;;;;7.37;5.20;;;;;;;;;;4451646;32;20222;-70
2023/06/05 12:16:58;;;;;;;8.18;4.95;;;;;;;;;;4437702;32;20018;-70
2023/06/05 12:19:23;;;;;;;8.40;4.03;;;;;;;;;;4439035;32;20135;-71
2023/06/05 12:21:54;;;;;;;6.40;4.97;;;;;;;;;;4451600;32;20073;-71
2023/06/05 12:24:26;;;;;;;8.05;5.10;;;;;;;;;;4448386;32;20097;-71
2023/06/05 12:26:53;;;;;;;8.27;5.12;;;;;;;;;;4434806;32;20402;-72
2023/06/05 12:29:20;;;;;;;5.32;4.53;;;;;;;;;;4436157;32;20029;-71
2023/06/05 12:31:45;;;;;;;6.68;5.00;;;;;;;;;;4436368;32;20497;-71
2023/06/05 12:34:11;;;;;;;6.90;4.63;;;;;;;;;;4435655;32;20022;-71
2023/06/05 12:36:40;;;;;;;9.82;5.43;;;;;;;;;;4436841;32;20122;-71
2023/06/05 12:39:06;;;;;;;7.43;5.45;;;;;;;;;;4421757;32;20432;-71
2023/06/05 12:41:33;;;;;;;7.95;5.40;;;;;;;;;;4434020;32;20021;-72
2023/06/05 12:43:59;;;;;;;9.52;5.62;;;;;;;;;;4453040;32;20433;-71
2023/06/05 12:46:24;;;;;;;7.07;5.85;;;;;;;;;;4437368;32;20061;-72
2023/06/05 12:48:49;;;;;;;8.60;5.43;;;;;;;;;;4451687;32;20013;-71
2023/06/05 12:51:15;;;;;;;6.93;5.20;;;;;;;;;;4451768;32;20139;-70
2023/06/05 12:53:40;;;;;;;6.82;5.60;;;;;;;;;;4436675;32;20328;-72
2023/06/05 12:56:05;;;;;;;6.82;5.57;;;;;;;;;;4450877;32;20022;-71
2023/06/05 12:58:30;;;;;;;6.93;6.13;;;;;;;;;;4450976;32;20357;-71
2023/06/05 13:00:55;;;;;;;7.57;5.77;;;;;;;;;;4451217;32;20143;-71
2023/06/05 13:03:23;;;;;;;10.23;5.70;;;;;;;;;;4451027;32;20154;-72
2023/06/05 13:05:48;;;;;;;9.70;6.28;;;;;;;;;;4452011;32;20151;-72
2023/06/05 13:08:13;;;;;;;6.85;5.47;;;;;;;;;;4436462;32;20544;-72
2023/06/05 13:10:40;;;;;;;7.23;5.80;;;;;;;;;;4437122;32;20375;-71
2023/06/05 13:13:05;;;;;;;6.68;5.97;;;;;;;;;;4423615;32;20530;-72
2023/06/05 13:15:31;;;;;;;10.82;6.22;;;;;;;;;;4435383;32;20045;-71
2023/06/05 13:17:56;;;;;;;9.60;6.03;;;;;;;;;;4436717;32;20052;-71
2023/06/05 13:20:21;;;;;;;7.68;5.32;;;;;;;;;;4435825;32;20029;-71
2023/06/05 13:22:46;;;;;;;11.32;6.22;;;;;;;;;;4435545;32;20399;-72
2023/06/05 13:25:12;;;;;;;7.80;5.47;;;;;;;;;;4431557;32;20407;-73
2023/06/05 13:27:37;;;;;;;8.90;5.72;;;;;;;;;;4451645;32;20426;-71
2023/06/05 13:30:03;;;;;;;7.32;5.50;;;;;;;;;;4437121;32;20021;-73
2023/06/05 13:32:29;;;;;;;10.68;5.35;;;;;;;;;;4437258;32;20448;-72
2023/06/05 13:34:55;;;;;;;7.45;6.43;;;;;;;;;;4436217;32;20356;-73
2023/06/05 13:37:20;;;;;;;10.95;5.85;;;;;;;;;;4450756;32;20043;-72
2023/06/05 13:39:46;;;;;;;5.95;5.07;;;;;;;;;;4450349;32;20459;-72
2023/06/05 13:42:11;;;;;;;9.68;6.60;;;;;;;;;;4435910;32;20017;-72
2023/06/05 13:44:36;;;;;;;8.68;6.30;;;;;;;;;;4435210;32;20022;-71
2023/06/05 13:47:03;;;;;;;7.37;4.82;;;;;;;;;;4434832;32;20022;-71
2023/06/05 13:49:28;;;;;;;9.48;6.30;;;;;;;;;;4449046;32;20359;-70
2023/06/05 13:51:53;;;;;;;6.35;5.50;;;;;;;;;;4450613;32;20072;-72
2023/06/05 13:54:19;;;;;;;7.93;5.93;;;;;;;;;;4450834;32;20474;-70
2023/06/05 13:56:44;;;;;;;7.03;5.50;;;;;;;;;;4444018;32;20156;-72
2023/06/05 13:59:09;;;;;;;6.53;5.57;;;;;;;;;;4438898;32;20098;-71
2023/06/05 14:01:34;;;;;;;11.10;5.87;;;;;;;;;;4439749;32;20597;-71
2023/06/05 14:04:00;;;;;;;8.90;5.43;;;;;;;;;;4435968;32;20014;-71
2023/06/05 14:06:25;;;;;;;8.43;4.65;;;;;;;;;;4450040;32;20013;-72
2023/06/05 14:08:50;;;;;;;10.15;6.20;;;;;;;;;;4450824;32;20021;-71
2023/06/05 14:11:15;;;;;;;7.93;6.00;;;;;;;;;;4436375;32;20109;-72
2023/06/05 14:13:41;;;;;;;8.10;5.57;;;;;;;;;;4451200;32;20387;-73
2023/06/05 14:16:08;;;;;;;8.82;5.85;;;;;;;;;;4440415;32;20129;-72
2023/06/05 14:18:33;;;;;;;7.62;5.00;;;;;;;;;;4440043;32;20025;-71
2023/06/05 14:20:58;;;;;;;5.73;4.87;;;;;;;;;;4454659;32;20025;-72
2023/06/05 14:23:24;;;;;;;8.70;5.50;;;;;;;;;;4452568;32;20561;-72
2023/06/05 14:25:49;;;;;;;7.70;5.87;;;;;;;;;;4453039;32;20406;-71
2023/06/05 14:28:15;;;;;;;8.13;5.37;;;;;;;;;;4434376;32;20026;-72
2023/06/05 14:30:40;;;;;;;11.52;5.55;;;;;;;;;;4440292;32;20048;-72
2023/06/05 14:33:05;;;;;;;8.57;5.82;;;;;;;;;;4442339;32;20021;-71
2023/06/05 14:35:30;;;;;;;8.80;5.57;;;;;;;;;;4447702;32;20056;-72
2023/06/05 14:37:56;;;;;;;8.60;5.57;;;;;;;;;;4430392;32;20209;-72
2023/06/05 14:40:21;;;;;;;6.97;5.53;;;;;;;;;;4438674;32;20045;-71
2023/06/05 14:42:46;;;;;;;9.30;6.03;;;;;;;;;;4445809;32;20022;-72